Time;durP1;ratioP1;P1;durP2;ratioP2;P2;SDS_P1;SDS_P2;PMS_P1;PMS_P2;Temp;Humidity;BMP_temperature;BMP_pressure;BME280_temperature;BME280_humidity;BME280_pressure;Samples;Min_cycle;Max_cycle;Signal;HPM_P1;HPM_P2
2023/12/21 00:00:00;;;;;;;2.75;0.95;;;;;;;;;;5063234;28;41713;-71
2023/12/21 00:02:31;;;;;;;2.13;0.93;;;;;;;;;;5062717;28;41422;-71
2023/12/21 00:04:59;;;;;;;1.95;0.93;;;;;;;;;;5061884;28;43038;-71
2023/12/21 00:07:28;;;;;;;1.95;0.98;;;;;;;;;;5066520;28;42110;-71
2023/12/21 00:09:57;;;;;;;3.35;1.00;;;;;;;;;;5056809;28;41231;-71
2023/12/21 00:12:26;;;;;;;1.42;0.90;;;;;;;;;;5060780;28;42026;-71
2023/12/21 00:14:54;;;;;;;3.50;0.90;;;;;;;;;;5064273;28;41902;-71
2023/12/21 00:17:22;;;;;;;3.20;1.17;;;;;;;;;;5065413;28;42214;-71
2023/12/21 00:19:50;;;;;;;3.65;1.60;;;;;;;;;;5059740;28;43133;-72
2023/12/21 00:22:23;;;;;;;1.95;0.80;;;;;;;;;;5060261;28;40966;-71
2023/12/21 00:24:51;;;;;;;1.00;0.70;;;;;;;;;;5059189;28;41357;-71
2023/12/21 00:27:18;;;;;;;3.88;0.82;;;;;;;;;;5056970;28;42957;-72
2023/12/21 00:29:47;;;;;;;2.30;1.25;;;;;;;;;;5055287;28;41030;-72
2023/12/21 00:32:15;;;;;;;3.40;1.33;;;;;;;;;;5054032;28;42170;-71
2023/12/21 00:34:43;;;;;;;4.32;1.13;;;;;;;;;;5061787;28;42700;-73
2023/12/21 00:37:11;;;;;;;1.98;0.88;;;;;;;;;;5050644;28;42644;-71
2023/12/21 00:39:39;;;;;;;2.65;1.30;;;;;;;;;;5056569;28;42452;-71
2023/12/21 00:42:07;;;;;;;1.95;1.17;;;;;;;;;;5057550;28;42232;-72
2023/12/21 00:44:34;;;;;;;1.50;0.68;;;;;;;;;;5057339;28;42578;-71
2023/12/21 00:47:06;;;;;;;1.95;1.00;;;;;;;;;;5058085;28;42036;-72
2023/12/21 00:49:34;;;;;;;2.60;1.40;;;;;;;;;;5067820;28;41935;-71
2023/12/21 00:52:03;;;;;;;1.55;0.82;;;;;;;;;;5058011;28;41106;-71
2023/12/21 00:54:31;;;;;;;2.85;1.25;;;;;;;;;;5065996;28;44033;-71
2023/12/21 00:56:58;;;;;;;2.30;1.10;;;;;;;;;;5059656;28;40612;-71
2023/12/21 00:59:26;;;;;;;1.40;0.70;;;;;;;;;;5060093;28;41512;-71
2023/12/21 01:01:54;;;;;;;2.03;0.88;;;;;;;;;;5062877;28;40762;-72
2023/12/21 01:04:24;;;;;;;4.20;1.30;;;;;;;;;;5063974;28;40076;-70
2023/12/21 01:06:52;;;;;;;2.72;1.30;;;;;;;;;;5062982;28;43127;-71
2023/12/21 01:09:20;;;;;;;1.33;0.77;;;;;;;;;;5061747;28;40861;-72
2023/12/21 01:11:48;;;;;;;3.15;0.93;;;;;;;;;;5055711;28;42187;-71
2023/12/21 01:14:16;;;;;;;0.98;0.75;;;;;;;;;;5057281;28;42692;-70
2023/12/21 01:16:44;;;;;;;1.77;0.85;;;;;;;;;;5061834;28;40756;-71
2023/12/21 01:19:11;;;;;;;2.08;0.88;;;;;;;;;;5062898;28;42324;-71
2023/12/21 01:21:41;;;;;;;1.30;0.90;;;;;;;;;;5065186;28;42054;-71
2023/12/21 01:24:09;;;;;;;1.52;0.93;;;;;;;;;;5059246;28;41811;-71
2023/12/21 01:26:37;;;;;;;1.65;0.77;;;;;;;;;;5060618;28;42416;-71
2023/12/21 01:29:05;;;;;;;3.92;1.92;;;;;;;;;;5061044;28;42227;-71
2023/12/21 01:31:32;;;;;;;2.13;0.80;;;;;;;;;;5061396;28;41646;-71
2023/12/21 01:34:01;;;;;;;1.85;0.90;;;;;;;;;;5080217;28;42804;-71
2023/12/21 01:36:29;;;;;;;3.78;1.08;;;;;;;;;;5058354;28;40998;-71
2023/12/21 01:39:00;;;;;;;1.85;0.93;;;;;;;;;;5063561;28;42725;-71
2023/12/21 01:41:27;;;;;;;2.17;0.82;;;;;;;;;;5064663;28;33435;-71
2023/12/21 01:43:56;;;;;;;1.23;0.60;;;;;;;;;;5068779;28;41931;-71
2023/12/21 01:46:24;;;;;;;1.00;0.70;;;;;;;;;;5057629;28;41791;-70
2023/12/21 01:48:52;;;;;;;2.28;0.98;;;;;;;;;;5059480;28;41612;-70
2023/12/21 01:51:20;;;;;;;4.45;1.50;;;;;;;;;;5067087;28;41461;-71
2023/12/21 01:53:48;;;;;;;4.07;1.73;;;;;;;;;;5062506;28;41938;-71
2023/12/21 01:56:18;;;;;;;4.75;1.58;;;;;;;;;;5064271;28;41760;-71
2023/12/21 01:58:46;;;;;;;2.00;0.82;;;;;;;;;;5064365;28;41430;-70
2023/12/21 02:01:14;;;;;;;1.98;0.90;;;;;;;;;;5066829;28;41763;-71
2023/12/21 02:03:42;;;;;;;3.97;1.83;;;;;;;;;;5061521;28;41465;-71
2023/12/21 02:06:10;;;;;;;1.58;0.93;;;;;;;;;;5065065;28;41918;-70
2023/12/21 02:08:38;;;;;;;2.33;1.10;;;;;;;;;;5065995;28;42331;-71
2023/12/21 02:11:06;;;;;;;2.00;0.77;;;;;;;;;;5063817;28;41678;-71
2023/12/21 02:13:36;;;;;;;2.58;0.90;;;;;;;;;;5063682;28;41730;-71
2023/12/21 02:16:06;;;;;;;2.63;1.10;;;;;;;;;;5060528;28;20257;-71
2023/12/21 02:18:34;;;;;;;3.15;1.15;;;;;;;;;;5071140;28;42931;-70
2023/12/21 02:21:02;;;;;;;2.13;0.90;;;;;;;;;;5059720;28;42539;-71
2023/12/21 02:23:30;;;;;;;3.60;1.83;;;;;;;;;;5071012;28;41980;-71
2023/12/21 02:25:59;;;;;;;1.85;0.95;;;;;;;;;;5085099;28;41612;-71
2023/12/21 02:28:27;;;;;;;3.20;1.33;;;;;;;;;;5069323;28;40956;-71
2023/12/21 02:30:55;;;;;;;3.00;1.10;;;;;;;;;;5076931;28;41601;-71
2023/12/21 02:33:23;;;;;;;2.72;0.98;;;;;;;;;;5075771;28;41867;-71
2023/12/21 02:35:51;;;;;;;1.77;1.13;;;;;;;;;;5070321;28;41048;-71
2023/12/21 02:38:19;;;;;;;3.67;1.23;;;;;;;;;;5064546;28;42305;-71
2023/12/21 02:40:47;;;;;;;2.60;1.13;;;;;;;;;;5067834;28;42026;-71
2023/12/21 02:43:16;;;;;;;2.72;1.05;;;;;;;;;;5069585;28;41209;-70
2023/12/21 02:45:44;;;;;;;1.98;0.90;;;;;;;;;;5070840;28;41085;-70
2023/12/21 02:48:12;;;;;;;3.13;1.45;;;;;;;;;;5058773;28;40702;-71
2023/12/21 02:50:40;;;;;;;2.75;0.95;;;;;;;;;;5062045;28;41835;-71
2023/12/21 02:53:08;;;;;;;2.00;0.90;;;;;;;;;;5059227;28;42641;-71
2023/12/21 02:55:36;;;;;;;1.90;1.00;;;;;;;;;;5070710;28;42074;-71
2023/12/21 02:58:04;;;;;;;2.70;1.10;;;;;;;;;;5065413;28;42423;-71
2023/12/21 03:00:34;;;;;;;2.20;0.80;;;;;;;;;;5067768;28;43158;-71
2023/12/21 03:03:02;;;;;;;2.10;1.23;;;;;;;;;;5064817;28;41397;-71
2023/12/21 03:05:30;;;;;;;1.10;0.60;;;;;;;;;;5059976;28;42241;-71
2023/12/21 03:07:58;;;;;;;2.72;0.90;;;;;;;;;;5066462;28;42239;-70
2023/12/21 03:10:26;;;;;;;2.13;1.00;;;;;;;;;;5062637;28;42650;-70
2023/12/21 03:12:54;;;;;;;2.13;0.80;;;;;;;;;;5063329;28;42003;-70
2023/12/21 03:15:22;;;;;;;3.45;1.15;;;;;;;;;;5071270;28;41004;-71
2023/12/21 03:17:52;;;;;;;2.22;0.95;;;;;;;;;;5071365;28;41499;-71
2023/12/21 03:20:20;;;;;;;3.35;1.17;;;;;;;;;;5065449;28;42600;-71
2023/12/21 03:22:48;;;;;;;1.73;0.98;;;;;;;;;;5063253;28;42071;-71
2023/12/21 03:25:16;;;;;;;1.48;0.90;;;;;;;;;;5071095;28;42137;-71
2023/12/21 03:27:46;;;;;;;1.95;1.38;;;;;;;;;;5068161;28;42663;-71
2023/12/21 03:30:15;;;;;;;2.63;1.45;;;;;;;;;;5059707;28;41917;-71
2023/12/21 03:32:43;;;;;;;1.67;0.80;;;;;;;;;;5062801;28;41746;-71
2023/12/21 03:35:13;;;;;;;1.42;0.63;;;;;;;;;;5065257;28;41815;-71
2023/12/21 03:37:41;;;;;;;2.75;1.25;;;;;;;;;;5061379;28;41376;-71
2023/12/21 03:40:09;;;;;;;1.70;0.95;;;;;;;;;;5063881;28;42642;-70
2023/12/21 03:42:38;;;;;;;1.70;0.80;;;;;;;;;;5064394;28;41099;-71
2023/12/21 03:45:06;;;;;;;2.15;1.15;;;;;;;;;;5062117;28;42051;-70
2023/12/21 03:47:34;;;;;;;2.45;1.70;;;;;;;;;;5061377;28;42053;-70
2023/12/21 03:50:02;;;;;;;3.90;1.30;;;;;;;;;;5056912;28;40808;-70
2023/12/21 03:52:31;;;;;;;3.58;1.20;;;;;;;;;;5060331;28;42039;-71
2023/12/21 03:55:00;;;;;;;2.72;1.20;;;;;;;;;;5056611;28;42311;-70
2023/12/21 03:57:28;;;;;;;4.05;1.33;;;;;;;;;;5057383;28;42696;-71
2023/12/21 03:59:55;;;;;;;2.63;1.20;;;;;;;;;;5060308;28;42295;-71
2023/12/21 04:02:23;;;;;;;1.55;1.00;;;;;;;;;;5055357;28;42364;-70
2023/12/21 04:04:51;;;;;;;2.33;0.98;;;;;;;;;;5066624;28;41617;-71
2023/12/21 04:07:19;;;;;;;3.05;0.85;;;;;;;;;;5058565;28;41982;-71
2023/12/21 04:09:49;;;;;;;3.92;1.20;;;;;;;;;;5053728;28;41412;-71
2023/12/21 04:12:17;;;;;;;2.95;1.00;;;;;;;;;;5054718;28;42308;-71
2023/12/21 04:14:45;;;;;;;1.00;0.70;;;;;;;;;;5056398;28;41355;-70
2023/12/21 04:17:13;;;;;;;1.90;0.90;;;;;;;;;;5066197;28;41248;-71
2023/12/21 04:19:41;;;;;;;3.10;1.38;;;;;;;;;;5046391;28;42112;-70
2023/12/21 04:22:09;;;;;;;2.45;1.25;;;;;;;;;;5067301;28;41324;-70
2023/12/21 04:24:37;;;;;;;3.33;1.40;;;;;;;;;;5066828;28;41700;-71
2023/12/21 04:27:06;;;;;;;2.83;1.30;;;;;;;;;;5067921;28;43110;-71
2023/12/21 04:29:34;;;;;;;2.83;1.27;;;;;;;;;;5067644;28;41128;-71
2023/12/21 04:32:02;;;;;;;3.83;1.00;;;;;;;;;;5081110;28;42275;-70
2023/12/21 04:34:30;;;;;;;2.22;1.10;;;;;;;;;;5081682;28;41861;-71
2023/12/21 04:36:58;;;;;;;3.50;1.55;;;;;;;;;;5067379;28;41618;-70
2023/12/21 04:39:26;;;;;;;3.70;1.42;;;;;;;;;;5065980;28;43058;-71
2023/12/21 04:41:54;;;;;;;5.47;1.52;;;;;;;;;;5067900;28;42337;-71
2023/12/21 04:44:23;;;;;;;2.63;0.85;;;;;;;;;;5067332;28;41751;-70
2023/12/21 04:46:51;;;;;;;3.65;1.25;;;;;;;;;;5058031;28;41423;-71
2023/12/21 04:49:22;;;;;;;2.22;0.90;;;;;;;;;;5067257;28;40675;-71
2023/12/21 04:51:50;;;;;;;4.82;2.00;;;;;;;;;;5063720;28;41577;-70
2023/12/21 04:54:18;;;;;;;2.40;1.10;;;;;;;;;;5067672;28;41460;-71
2023/12/21 04:56:46;;;;;;;3.55;1.10;;;;;;;;;;5078929;28;41361;-71
2023/12/21 04:59:14;;;;;;;2.20;1.10;;;;;;;;;;5075792;28;43153;-70
2023/12/21 05:01:43;;;;;;;3.92;1.33;;;;;;;;;;5050717;28;40642;-71
2023/12/21 05:04:11;;;;;;;3.58;1.35;;;;;;;;;;5047512;28;41766;-71
2023/12/21 05:06:39;;;;;;;2.13;0.85;;;;;;;;;;5049593;28;41841;-71
2023/12/21 05:09:07;;;;;;;2.33;1.38;;;;;;;;;;5059702;28;41920;-71
2023/12/21 05:11:35;;;;;;;2.78;1.10;;;;;;;;;;5081591;28;41752;-71
2023/12/21 05:14:03;;;;;;;2.42;1.17;;;;;;;;;;5062248;28;42105;-71
2023/12/21 05:16:31;;;;;;;2.70;1.08;;;;;;;;;;5066426;28;42562;-71
2023/12/21 05:19:00;;;;;;;3.30;1.48;;;;;;;;;;5054451;28;42792;-70
2023/12/21 05:21:28;;;;;;;2.15;0.93;;;;;;;;;;5056123;28;40815;-71
2023/12/21 05:23:56;;;;;;;6.43;1.90;;;;;;;;;;5051071;28;41608;-71
2023/12/21 05:26:24;;;;;;;4.75;1.77;;;;;;;;;;5065358;28;42129;-71
2023/12/21 05:28:53;;;;;;;3.42;1.60;;;;;;;;;;5063848;28;41338;-71
2023/12/21 05:31:24;;;;;;;3.60;1.52;;;;;;;;;;5064354;28;42126;-71
2023/12/21 05:33:52;;;;;;;4.13;1.73;;;;;;;;;;5061323;28;41898;-71
2023/12/21 05:36:22;;;;;;;3.55;1.15;;;;;;;;;;5057115;28;41874;-71
2023/12/21 05:38:50;;;;;;;2.78;1.00;;;;;;;;;;5064159;28;40799;-71
2023/12/21 05:41:18;;;;;;;4.88;1.90;;;;;;;;;;5064596;28;43102;-70
2023/12/21 05:43:46;;;;;;;2.13;0.77;;;;;;;;;;5063464;28;41676;-71
2023/12/21 05:46:14;;;;;;;5.32;1.60;;;;;;;;;;5063471;28;42036;-71
2023/12/21 05:48:42;;;;;;;1.95;0.77;;;;;;;;;;5064462;28;40940;-71
2023/12/21 05:51:11;;;;;;;4.03;1.35;;;;;;;;;;5059540;28;41671;-71
2023/12/21 05:53:41;;;;;;;3.35;1.30;;;;;;;;;;5062795;28;42064;-70
2023/12/21 05:56:09;;;;;;;3.03;1.20;;;;;;;;;;5062739;28;41518;-70
2023/12/21 05:58:37;;;;;;;2.35;1.35;;;;;;;;;;5056397;28;41149;-71
2023/12/21 06:01:05;;;;;;;4.80;1.67;;;;;;;;;;5062772;28;41354;-70
2023/12/21 06:03:33;;;;;;;6.07;1.75;;;;;;;;;;5065582;28;41392;-71
2023/12/21 06:06:01;;;;;;;3.72;1.60;;;;;;;;;;5064512;28;41692;-71
2023/12/21 06:08:29;;;;;;;3.80;1.33;;;;;;;;;;5065458;28;40524;-71
2023/12/21 06:10:59;;;;;;;2.97;1.17;;;;;;;;;;5063739;28;40987;-71
2023/12/21 06:13:28;;;;;;;3.95;1.30;;;;;;;;;;5065614;28;42537;-70
2023/12/21 06:15:56;;;;;;;2.47;1.05;;;;;;;;;;5042772;28;40970;-70
2023/12/21 06:18:24;;;;;;;1.85;0.90;;;;;;;;;;5061425;28;41867;-71
2023/12/21 06:20:52;;;;;;;2.58;1.38;;;;;;;;;;5055919;28;42499;-70
2023/12/21 06:23:20;;;;;;;4.72;1.50;;;;;;;;;;5061362;28;41538;-71
2023/12/21 06:25:48;;;;;;;2.85;0.82;;;;;;;;;;5070076;28;41908;-70
2023/12/21 06:28:17;;;;;;;2.20;1.00;;;;;;;;;;5069628;28;41126;-71
2023/12/21 06:30:45;;;;;;;3.53;1.20;;;;;;;;;;5061026;28;41751;-71
2023/12/21 06:33:14;;;;;;;3.53;1.27;;;;;;;;;;5045340;28;40374;-71
2023/12/21 06:35:42;;;;;;;1.88;0.90;;;;;;;;;;5054673;28;41505;-71
2023/12/21 06:38:09;;;;;;;2.60;1.25;;;;;;;;;;5055317;28;41314;-71
2023/12/21 06:40:37;;;;;;;2.08;0.98;;;;;;;;;;5064042;28;42384;-71
2023/12/21 06:43:05;;;;;;;1.70;0.70;;;;;;;;;;5063834;28;41745;-71
2023/12/21 06:45:35;;;;;;;2.00;1.10;;;;;;;;;;5064090;28;42168;-71
2023/12/21 06:48:03;;;;;;;3.88;1.05;;;;;;;;;;5064092;28;41203;-71
2023/12/21 06:50:31;;;;;;;1.63;0.98;;;;;;;;;;5075599;28;41744;-71
2023/12/21 06:53:00;;;;;;;2.97;1.05;;;;;;;;;;5064618;28;41675;-71
2023/12/21 06:55:28;;;;;;;4.70;1.33;;;;;;;;;;5065058;28;42348;-71
2023/12/21 06:57:56;;;;;;;2.40;0.80;;;;;;;;;;5063495;28;41699;-71
2023/12/21 07:00:24;;;;;;;2.30;1.17;;;;;;;;;;5052567;28;41732;-70
2023/12/21 07:02:54;;;;;;;3.03;0.93;;;;;;;;;;5066333;28;42221;-71
2023/12/21 07:05:22;;;;;;;2.58;1.13;;;;;;;;;;5060957;28;42233;-71
2023/12/21 07:07:50;;;;;;;3.05;0.90;;;;;;;;;;5067262;28;42000;-71
2023/12/21 07:10:18;;;;;;;2.22;0.90;;;;;;;;;;5067375;28;41278;-71
2023/12/21 07:12:46;;;;;;;2.67;0.85;;;;;;;;;;5068966;28;42751;-70
2023/12/21 07:15:14;;;;;;;1.80;0.80;;;;;;;;;;5065597;28;41100;-70
2023/12/21 07:17:42;;;;;;;3.15;0.98;;;;;;;;;;5067150;28;41688;-71
2023/12/21 07:20:12;;;;;;;4.50;1.55;;;;;;;;;;5065665;28;41841;-71
2023/12/21 07:22:40;;;;;;;2.63;1.00;;;;;;;;;;5072588;28;41024;-70
2023/12/21 07:25:08;;;;;;;2.13;1.00;;;;;;;;;;5057601;28;41050;-70
2023/12/21 07:27:36;;;;;;;2.50;1.20;;;;;;;;;;5066102;28;41669;-71
2023/12/21 07:30:05;;;;;;;2.72;1.02;;;;;;;;;;5064953;28;41697;-71
2023/12/21 07:32:33;;;;;;;1.98;0.93;;;;;;;;;;5067300;28;43147;-71
2023/12/21 07:35:01;;;;;;;1.83;0.70;;;;;;;;;;5061360;28;41440;-70
2023/12/21 07:37:30;;;;;;;1.73;0.85;;;;;;;;;;5064610;28;42126;-71
2023/12/21 07:39:58;;;;;;;1.48;0.93;;;;;;;;;;5068419;28;42282;-71
2023/12/21 07:42:27;;;;;;;2.88;1.15;;;;;;;;;;5064648;28;41290;-71
2023/12/21 07:44:55;;;;;;;2.40;1.20;;;;;;;;;;5065588;28;41264;-70
2023/12/21 07:47:23;;;;;;;1.50;0.70;;;;;;;;;;5066117;28;41615;-70
2023/12/21 07:49:51;;;;;;;1.88;0.82;;;;;;;;;;5068213;28;41251;-70
2023/12/21 07:52:19;;;;;;;3.22;1.17;;;;;;;;;;5067963;28;41674;-70
2023/12/21 07:54:49;;;;;;;4.35;1.20;;;;;;;;;;5057499;28;41794;-71
2023/12/21 07:57:16;;;;;;;2.90;1.10;;;;;;;;;;5067462;28;42950;-71
2023/12/21 07:59:45;;;;;;;2.70;0.90;;;;;;;;;;5056184;28;41632;-71
2023/12/21 08:02:13;;;;;;;2.60;1.08;;;;;;;;;;5062655;28;41179;-71
2023/12/21 08:04:41;;;;;;;1.45;0.60;;;;;;;;;;5062832;28;41557;-71
2023/12/21 08:07:09;;;;;;;2.95;1.05;;;;;;;;;;5066107;28;41535;-71
2023/12/21 08:09:37;;;;;;;2.88;1.10;;;;;;;;;;5060475;28;40814;-70
2023/12/21 08:12:06;;;;;;;2.88;0.85;;;;;;;;;;5065517;28;42153;-71
2023/12/21 08:14:37;;;;;;;1.98;1.00;;;;;;;;;;5064270;28;41736;-71
2023/12/21 08:17:09;;;;;;;2.60;1.00;;;;;;;;;;5063508;28;41266;-70
2023/12/21 08:19:38;;;;;;;3.38;0.90;;;;;;;;;;5066948;28;42963;-71
2023/12/21 08:22:06;;;;;;;1.30;0.82;;;;;;;;;;5064454;28;41287;-71
2023/12/21 08:24:34;;;;;;;2.22;0.90;;;;;;;;;;5048733;28;41714;-71
2023/12/21 08:27:02;;;;;;;1.30;0.60;;;;;;;;;;5063006;28;41921;-71
2023/12/21 08:29:31;;;;;;;1.85;0.60;;;;;;;;;;5053886;28;41595;-71
2023/12/21 08:32:00;;;;;;;1.67;0.80;;;;;;;;;;5065453;28;41530;-70
2023/12/21 08:34:28;;;;;;;2.35;1.08;;;;;;;;;;5062758;28;41720;-71
2023/12/21 08:36:56;;;;;;;3.20;0.60;;;;;;;;;;5059783;28;41637;-70
2023/12/21 08:39:24;;;;;;;2.47;0.70;;;;;;;;;;5064191;28;42119;-70
2023/12/21 08:41:52;;;;;;;2.90;0.40;;;;;;;;;;5065578;28;41629;-70
2023/12/21 08:44:20;;;;;;;2.58;0.50;;;;;;;;;;5064764;28;42323;-71
2023/12/21 08:46:50;;;;;;;3.30;0.55;;;;;;;;;;5058885;28;42141;-71
2023/12/21 08:49:18;;;;;;;1.35;0.45;;;;;;;;;;5060476;28;40793;-70
2023/12/21 08:51:46;;;;;;;1.23;0.40;;;;;;;;;;5052273;28;41627;-71
2023/12/21 08:54:14;;;;;;;1.95;0.60;;;;;;;;;;5066037;28;42045;-70
2023/12/21 08:56:42;;;;;;;3.75;0.70;;;;;;;;;;5060649;28;41225;-70
2023/12/21 08:59:10;;;;;;;2.70;0.50;;;;;;;;;;5051948;28;41734;-71
2023/12/21 09:01:38;;;;;;;3.83;0.65;;;;;;;;;;5061708;28;40957;-71
2023/12/21 09:04:08;;;;;;;2.30;0.57;;;;;;;;;;5055913;28;40940;-70
2023/12/21 09:06:36;;;;;;;5.38;0.60;;;;;;;;;;5062656;28;42237;-70
2023/12/21 09:09:04;;;;;;;2.42;0.68;;;;;;;;;;5065072;28;41704;-71
2023/12/21 09:11:32;;;;;;;2.97;0.60;;;;;;;;;;5052878;28;41787;-72
2023/12/21 09:14:00;;;;;;;2.05;0.40;;;;;;;;;;5054870;28;42771;-71
2023/12/21 09:16:28;;;;;;;1.55;0.45;;;;;;;;;;5064974;28;41439;-72
2023/12/21 09:18:56;;;;;;;1.88;0.43;;;;;;;;;;5064304;28;41549;-73
2023/12/21 09:21:26;;;;;;;1.23;0.40;;;;;;;;;;5064542;28;42339;-70
2023/12/21 09:23:54;;;;;;;2.28;0.43;;;;;;;;;;5061104;28;41741;-69
2023/12/21 09:26:22;;;;;;;2.28;0.60;;;;;;;;;;5052001;28;42097;-68
2023/12/21 09:28:50;;;;;;;3.80;0.55;;;;;;;;;;5053609;28;41379;-70
2023/12/21 09:31:18;;;;;;;2.85;0.63;;;;;;;;;;5061133;28;41120;-70
2023/12/21 09:33:46;;;;;;;3.05;0.50;;;;;;;;;;5055721;28;41861;-70
2023/12/21 09:36:15;;;;;;;2.05;0.68;;;;;;;;;;5054492;28;41063;-70
2023/12/21 09:38:46;;;;;;;2.53;0.50;;;;;;;;;;5059383;28;41906;-70
2023/12/21 09:41:14;;;;;;;1.67;0.70;;;;;;;;;;5053302;28;41265;-69
2023/12/21 09:43:42;;;;;;;2.53;0.70;;;;;;;;;;5059314;28;41252;-70
2023/12/21 09:46:10;;;;;;;1.35;0.47;;;;;;;;;;5060149;28;40986;-69
2023/12/21 09:48:40;;;;;;;2.67;0.47;;;;;;;;;;5059678;28;42279;-70
2023/12/21 09:51:08;;;;;;;2.05;0.70;;;;;;;;;;5060479;28;42199;-69
2023/12/21 09:53:37;;;;;;;1.75;0.50;;;;;;;;;;5062213;28;44128;-69
2023/12/21 09:56:06;;;;;;;3.80;0.75;;;;;;;;;;5059935;28;42261;-69
2023/12/21 09:58:34;;;;;;;3.80;0.80;;;;;;;;;;5060533;28;41634;-68
2023/12/21 10:01:02;;;;;;;2.40;0.70;;;;;;;;;;5059147;28;42237;-69
2023/12/21 10:03:32;;;;;;;4.13;0.93;;;;;;;;;;5057069;28;41849;-69
2023/12/21 10:06:00;;;;;;;2.22;0.70;;;;;;;;;;5062340;28;41734;-69
2023/12/21 10:08:28;;;;;;;1.13;0.43;;;;;;;;;;5058075;28;40577;-69
2023/12/21 10:10:56;;;;;;;2.25;0.60;;;;;;;;;;5062406;28;41557;-69
2023/12/21 10:13:25;;;;;;;2.30;0.50;;;;;;;;;;5061219;28;41661;-69
2023/12/21 10:15:57;;;;;;;1.65;0.50;;;;;;;;;;5060260;28;41300;-69
2023/12/21 10:18:26;;;;;;;1.40;0.50;;;;;;;;;;5056836;28;41360;-69
2023/12/21 10:20:54;;;;;;;2.10;0.57;;;;;;;;;;5059364;28;42638;-71
2023/12/21 10:23:22;;;;;;;2.05;0.60;;;;;;;;;;5061166;28;40811;-69
2023/12/21 10:25:50;;;;;;;1.42;0.40;;;;;;;;;;5062958;28;42054;-69
2023/12/21 10:28:21;;;;;;;2.15;0.60;;;;;;;;;;5059925;28;41641;-69
2023/12/21 10:30:54;;;;;;;2.95;0.70;;;;;;;;;;5057632;28;41236;-69
2023/12/21 10:33:22;;;;;;;1.20;0.50;;;;;;;;;;5061049;28;42258;-69
2023/12/21 10:35:51;;;;;;;1.60;0.40;;;;;;;;;;5060897;28;42202;-69
2023/12/21 10:38:19;;;;;;;5.82;0.80;;;;;;;;;;5064114;28;41413;-69
2023/12/21 10:40:47;;;;;;;1.95;0.60;;;;;;;;;;5067121;28;41656;-69
2023/12/21 10:43:15;;;;;;;2.35;0.70;;;;;;;;;;5064101;28;41443;-69
2023/12/21 10:45:43;;;;;;;2.30;0.77;;;;;;;;;;5061863;28;40604;-70
2023/12/21 10:48:13;;;;;;;2.70;0.60;;;;;;;;;;5045517;28;39779;-69
2023/12/21 10:50:43;;;;;;;0.70;0.30;;;;;;;;;;5058059;28;41253;-70
2023/12/21 10:53:14;;;;;;;1.73;0.55;;;;;;;;;;5063519;28;42346;-69
2023/12/21 10:55:42;;;;;;;3.22;0.80;;;;;;;;;;5066011;28;40822;-70
2023/12/21 10:58:10;;;;;;;2.35;0.90;;;;;;;;;;5064197;28;42309;-71
2023/12/21 11:00:38;;;;;;;2.22;0.60;;;;;;;;;;5062091;28;41052;-70
2023/12/21 11:03:07;;;;;;;2.20;0.73;;;;;;;;;;5067518;28;40571;-69
2023/12/21 11:05:36;;;;;;;4.97;0.88;;;;;;;;;;5062409;28;41998;-70
2023/12/21 11:08:06;;;;;;;1.25;0.57;;;;;;;;;;5059482;28;40347;-71
2023/12/21 11:10:34;;;;;;;2.72;0.50;;;;;;;;;;5063701;28;42150;-69
2023/12/21 11:13:02;;;;;;;2.70;0.60;;;;;;;;;;5064741;28;41790;-69
2023/12/21 11:15:30;;;;;;;1.40;0.47;;;;;;;;;;5060551;28;42427;-69
2023/12/21 11:17:59;;;;;;;1.85;0.52;;;;;;;;;;5065358;28;41631;-73
2023/12/21 11:20:27;;;;;;;2.90;0.52;;;;;;;;;;5064557;28;41637;-74
2023/12/21 11:23:13;;;;;;;5.75;0.77;;;;;;;;;;5063449;28;40906;-73
2023/12/21 11:25:41;;;;;;;2.25;0.70;;;;;;;;;;5058743;28;40574;-73
2023/12/21 11:28:09;;;;;;;4.63;0.77;;;;;;;;;;5061329;28;41637;-74
2023/12/21 11:30:37;;;;;;;1.55;0.60;;;;;;;;;;5065835;28;42163;-73
2023/12/21 11:33:06;;;;;;;1.38;0.60;;;;;;;;;;5041913;28;42243;-74
2023/12/21 11:35:35;;;;;;;2.97;0.77;;;;;;;;;;5062132;28;40993;-73
2023/12/21 11:38:05;;;;;;;3.08;0.75;;;;;;;;;;5059948;28;42743;-69
2023/12/21 11:40:35;;;;;;;3.83;0.88;;;;;;;;;;5060221;28;41796;-69
2023/12/21 11:43:06;;;;;;;4.82;0.63;;;;;;;;;;5065408;28;42490;-69
2023/12/21 11:45:37;;;;;;;3.72;0.70;;;;;;;;;;5062535;28;42620;-69
2023/12/21 11:48:06;;;;;;;2.95;0.70;;;;;;;;;;5056310;28;41046;-70
2023/12/21 11:50:34;;;;;;;3.53;0.93;;;;;;;;;;5062233;28;41285;-72
2023/12/21 11:53:06;;;;;;;3.67;0.88;;;;;;;;;;5057646;28;42686;-72
2023/12/21 11:55:43;;;;;;;5.47;0.90;;;;;;;;;;5061326;28;42293;-72
2023/12/21 11:58:16;;;;;;;6.15;0.90;;;;;;;;;;5063966;28;41556;-71
2023/12/21 12:00:44;;;;;;;2.45;0.80;;;;;;;;;;5064943;28;41381;-72
2023/12/21 12:03:13;;;;;;;2.17;0.52;;;;;;;;;;5066152;28;41331;-70
2023/12/21 12:05:41;;;;;;;2.65;0.50;;;;;;;;;;5063199;28;41271;-72
2023/12/21 12:08:09;;;;;;;3.13;0.70;;;;;;;;;;5064932;28;42242;-72
2023/12/21 12:10:37;;;;;;;3.20;0.60;;;;;;;;;;5061486;28;40385;-73
2023/12/21 12:13:09;;;;;;;3.25;0.50;;;;;;;;;;5058198;28;41240;-71
2023/12/21 12:15:37;;;;;;;4.97;1.08;;;;;;;;;;5061249;28;32832;-71
2023/12/21 12:18:08;;;;;;;2.80;0.65;;;;;;;;;;5064234;28;40438;-71
2023/12/21 12:20:41;;;;;;;3.00;0.80;;;;;;;;;;5062521;28;41710;-74
2023/12/21 12:23:10;;;;;;;3.92;0.90;;;;;;;;;;5062745;28;41892;-71
2023/12/21 12:25:38;;;;;;;4.93;0.77;;;;;;;;;;5058995;28;41220;-73
2023/12/21 12:28:17;;;;;;;8.55;1.10;;;;;;;;;;5060447;28;41915;-77
2023/12/21 12:30:47;;;;;;;1.95;0.68;;;;;;;;;;5061414;28;40014;-73
2023/12/21 12:33:16;;;;;;;3.08;0.80;;;;;;;;;;5065178;28;42100;-76
2023/12/21 12:35:48;;;;;;;2.22;0.73;;;;;;;;;;5059605;28;41745;-72
2023/12/21 12:38:16;;;;;;;3.25;1.20;;;;;;;;;;5061721;28;41330;-75
2023/12/21 12:40:46;;;;;;;5.70;1.17;;;;;;;;;;5062671;28;42815;-77
2023/12/21 12:43:15;;;;;;;5.03;1.02;;;;;;;;;;5059665;28;40871;-76
2023/12/21 12:45:44;;;;;;;5.97;1.13;;;;;;;;;;5062857;28;41406;-75
2023/12/21 12:48:14;;;;;;;5.43;1.13;;;;;;;;;;5063462;28;43113;-72
2023/12/21 12:50:42;;;;;;;3.78;0.82;;;;;;;;;;5064885;28;40896;-74
2023/12/21 12:53:10;;;;;;;3.50;0.80;;;;;;;;;;5063553;28;41480;-74
2023/12/21 12:55:39;;;;;;;3.78;1.00;;;;;;;;;;5067535;28;42892;-75
2023/12/21 12:58:07;;;;;;;1.95;0.52;;;;;;;;;;5064124;28;40571;-72
2023/12/21 13:00:35;;;;;;;4.22;0.85;;;;;;;;;;5061090;28;41431;-74
2023/12/21 13:03:04;;;;;;;2.97;0.55;;;;;;;;;;5065473;28;40936;-70
2023/12/21 13:05:32;;;;;;;2.30;0.52;;;;;;;;;;5065782;28;41709;-71
2023/12/21 13:08:00;;;;;;;2.85;0.73;;;;;;;;;;5053537;28;42094;-70
2023/12/21 13:10:28;;;;;;;1.85;0.82;;;;;;;;;;5064566;28;42379;-71
2023/12/21 13:12:56;;;;;;;3.65;0.82;;;;;;;;;;5069586;28;41568;-71
2023/12/21 13:15:24;;;;;;;2.58;0.93;;;;;;;;;;5045415;28;40557;-71
2023/12/21 13:17:54;;;;;;;2.90;0.80;;;;;;;;;;5055660;28;41952;-71
2023/12/21 13:20:23;;;;;;;7.00;1.02;;;;;;;;;;5068953;28;41300;-74
2023/12/21 13:22:52;;;;;;;3.88;1.10;;;;;;;;;;5051894;28;41516;-75
2023/12/21 13:25:20;;;;;;;11.00;1.40;;;;;;;;;;5061119;28;41421;-76
2023/12/21 13:27:52;;;;;;;8.32;1.30;;;;;;;;;;5060362;28;41950;-75
2023/12/21 13:30:40;;;;;;;3.80;0.93;;;;;;;;;;5065112;28;42027;-75
2023/12/21 13:33:10;;;;;;;5.07;1.10;;;;;;;;;;5065056;28;42763;-75
2023/12/21 13:35:40;;;;;;;6.53;1.60;;;;;;;;;;5061469;28;42652;-75
2023/12/21 13:38:08;;;;;;;5.75;1.45;;;;;;;;;;5063791;28;41280;-75
2023/12/21 13:40:35;;;;;;;6.93;1.83;;;;;;;;;;5064725;28;41716;-75
2023/12/21 13:43:04;;;;;;;4.75;1.30;;;;;;;;;;5059689;28;41545;-76
2023/12/21 13:45:32;;;;;;;6.25;1.40;;;;;;;;;;5064589;28;41937;-75
2023/12/21 13:48:01;;;;;;;4.57;1.25;;;;;;;;;;5064898;28;42698;-77
2023/12/21 13:50:29;;;;;;;4.45;1.00;;;;;;;;;;5067432;28;41133;-76
2023/12/21 13:52:57;;;;;;;5.90;1.23;;;;;;;;;;5061860;28;42253;-76
2023/12/21 13:55:25;;;;;;;6.82;1.52;;;;;;;;;;5058362;28;41795;-75
2023/12/21 13:57:53;;;;;;;4.93;1.38;;;;;;;;;;5065982;28;41858;-74
2023/12/21 14:00:22;;;;;;;5.00;1.00;;;;;;;;;;5039755;28;40101;-73
2023/12/21 14:02:50;;;;;;;5.25;1.10;;;;;;;;;;5059201;28;42122;-72
2023/12/21 14:05:18;;;;;;;7.30;2.08;;;;;;;;;;5053632;28;40824;-74
2023/12/21 14:07:46;;;;;;;6.68;1.20;;;;;;;;;;5060987;28;41653;-73
2023/12/21 14:10:16;;;;;;;4.97;1.48;;;;;;;;;;5059025;28;40935;-72
2023/12/21 14:12:44;;;;;;;10.15;2.63;;;;;;;;;;5055542;28;41241;-72
2023/12/21 14:15:13;;;;;;;8.93;2.22;;;;;;;;;;5057494;28;41437;-72
2023/12/21 14:17:41;;;;;;;6.30;1.65;;;;;;;;;;5050816;28;40927;-73
2023/12/21 14:20:11;;;;;;;5.35;1.33;;;;;;;;;;5065482;28;41379;-73
2023/12/21 14:22:39;;;;;;;7.47;1.67;;;;;;;;;;5055694;28;43111;-73
2023/12/21 14:25:08;;;;;;;7.32;2.00;;;;;;;;;;5065501;28;41190;-73
2023/12/21 14:27:37;;;;;;;6.70;1.30;;;;;;;;;;5062651;28;41744;-73
2023/12/21 14:30:08;;;;;;;9.60;2.08;;;;;;;;;;5068182;28;41597;-73
2023/12/21 14:32:36;;;;;;;5.22;1.42;;;;;;;;;;5070694;28;41868;-73
2023/12/21 14:35:05;;;;;;;11.27;2.30;;;;;;;;;;5064873;28;42312;-73
2023/12/21 14:37:33;;;;;;;4.80;1.63;;;;;;;;;;5058825;28;42097;-73
2023/12/21 14:40:01;;;;;;;14.68;2.78;;;;;;;;;;5063089;28;41773;-73
2023/12/21 14:42:29;;;;;;;16.55;2.47;;;;;;;;;;5078315;28;42847;-73
2023/12/21 14:44:58;;;;;;;13.80;2.58;;;;;;;;;;5055042;28;41427;-73
2023/12/21 14:47:29;;;;;;;11.18;2.80;;;;;;;;;;5072402;28;41574;-73
2023/12/21 14:49:57;;;;;;;8.70;2.35;;;;;;;;;;5058075;28;41199;-74